Archer, Idaho
Current Conditions -  °F | °C
As of 8:53 AM on Tuesday 21 Oct 2014 (Local Time) from KRXE Reporting Station
Broken Clouds Broken Clouds  
Wind Chill: 39°   Ceiling: 7000
Heat Index: 47°   Visibility: 10mi
Dew Point: 40°   Wind: 23mph
Humidity: 77%   Direction: 210°SSW
Pressure: 29.9"   Gusts: 35mph
Location:  43.7568°N, 111.624°W
Report Text: KRXE 211453Z AUTO 21020G30KT 10SM BKN070 BKN100 08/04 A2990 RMK AO2 PK WND 21030/1448 SLP102 60001 T00830044 53021
Loading
Personal Weather Stations






























Interactive Weather Map New forecast layout! Learn more

10-Day Weather Forecast

Advertisements
Track Severe Weather on mobile